Time;durP1;ratioP1;P1;durP2;ratioP2;P2;SDS_P1;SDS_P2;PMS_P1;PMS_P2;Temp;Humidity;BMP_temperature;BMP_pressure;BME280_temperature;BME280_humidity;BME280_pressure;Samples;Min_cycle;Max_cycle;Signal;HPM_P1;HPM_P2
2022/08/16 00:01:42;;;;;;;6.03;5.10;;;24.80;84.10;;;;;;5123203;27;20623;-40
2022/08/16 00:04:11;;;;;;;7.60;5.00;;;24.70;84.00;;;;;;5096114;27;20197;-48
2022/08/16 00:06:40;;;;;;;5.40;4.95;;;24.70;84.00;;;;;;5122626;27;20232;-40
2022/08/16 00:09:10;;;;;;;6.65;5.97;;;24.70;84.00;;;;;;5120027;27;20537;-40
2022/08/16 00:11:42;;;;;;;6.43;5.63;;;24.70;84.40;;;;;;5113324;27;20228;-40
2022/08/16 00:14:12;;;;;;;7.00;5.05;;;24.70;84.20;;;;;;5115987;27;20210;-40
2022/08/16 00:16:40;;;;;;;6.35;5.50;;;24.70;84.40;;;;;;5121069;27;20205;-40
2022/08/16 00:19:31;;;;;;;7.25;5.43;;;24.60;84.30;;;;;;5108041;27;20228;-41
2022/08/16 00:22:09;;;;;;;9.57;5.47;;;24.60;84.50;;;;;;5106584;27;20217;-40
2022/08/16 00:24:43;;;;;;;7.28;5.10;;;24.50;84.50;;;;;;5119880;27;20196;-40
2022/08/16 00:27:13;;;;;;;6.30;5.38;;;24.50;84.40;;;;;;5121885;27;20699;-49
2022/08/16 00:29:40;;;;;;;7.03;5.40;;;24.50;84.30;;;;;;5114059;27;20777;-49
2022/08/16 00:32:14;;;;;;;8.02;5.07;;;24.50;84.40;;;;;;5122795;27;20217;-50
2022/08/16 00:34:45;;;;;;;5.60;5.10;;;24.40;84.40;;;;;;5108711;27;20204;-51
2022/08/16 00:37:25;;;;;;;6.35;5.28;;;24.40;84.40;;;;;;5105153;28;20209;-40
2022/08/16 00:40:24;;;;;;;8.90;5.22;;;24.40;84.40;;;;;;5103180;27;20201;-40
2022/08/16 00:43:09;;;;;;;8.30;5.35;;;24.30;84.90;;;;;;5114948;27;20322;-40
2022/08/16 00:46:24;;;;;;;7.05;5.38;;;24.30;84.90;;;;;;5117960;28;20606;-40
2022/08/16 00:49:08;;;;;;;6.13;5.05;;;24.30;85.20;;;;;;5115728;28;20213;-40
2022/08/16 00:51:48;;;;;;;8.63;5.20;;;24.20;84.80;;;;;;5125833;28;20243;-42
2022/08/16 00:54:25;;;;;;;7.93;4.97;;;24.20;84.70;;;;;;5121106;28;20210;-41
2022/08/16 00:56:57;;;;;;;6.53;5.13;;;24.20;84.90;;;;;;5116215;28;20197;-41
2022/08/16 00:59:32;;;;;;;5.82;5.22;;;24.10;84.70;;;;;;5112623;28;20706;-39
2022/08/16 01:02:05;;;;;;;6.30;5.10;;;24.10;85.00;;;;;;5111675;28;20690;-51
2022/08/16 01:04:53;;;;;;;6.18;5.13;;;24.10;85.00;;;;;;5118464;28;20285;-42
2022/08/16 01:07:42;;;;;;;5.80;5.25;;;24.10;85.10;;;;;;5109731;28;20216;-41
2022/08/16 01:10:21;;;;;;;7.60;5.47;;;24.00;84.90;;;;;;5117505;27;20573;-41
2022/08/16 01:13:21;;;;;;;7.25;5.32;;;24.00;85.00;;;;;;5114889;27;20193;-42
2022/08/16 01:15:58;;;;;;;7.38;5.30;;;24.00;85.50;;;;;;5099046;27;20206;-40
2022/08/16 01:18:34;;;;;;;5.47;4.97;;;23.90;84.90;;;;;;5124771;27;20221;-41
2022/08/16 01:21:41;;;;;;;5.82;5.22;;;23.90;84.90;;;;;;5108332;27;20525;-39
2022/08/16 01:24:17;;;;;;;9.23;5.60;;;23.90;85.40;;;;;;5103017;27;20205;-40
2022/08/16 01:27:10;;;;;;;6.20;5.20;;;23.90;85.10;;;;;;5113619;27;20200;-40
2022/08/16 01:29:56;;;;;;;6.00;5.10;;;23.80;85.20;;;;;;5113013;27;20563;-40
2022/08/16 01:32:30;;;;;;;6.85;4.82;;;23.80;85.10;;;;;;5121011;27;20766;-40
2022/08/16 01:35:08;;;;;;;5.80;5.05;;;23.80;85.10;;;;;;5124833;27;20197;-41
2022/08/16 01:37:48;;;;;;;6.63;5.00;;;23.80;85.10;;;;;;5118407;27;20206;-40
2022/08/16 01:40:29;;;;;;;6.75;4.72;;;23.70;85.20;;;;;;5117144;27;20336;-41
2022/08/16 01:42:59;;;;;;;6.03;5.30;;;23.70;85.30;;;;;;5128616;27;20233;-40
2022/08/16 01:45:27;;;;;;;6.63;4.93;;;23.70;85.20;;;;;;5117822;27;20194;-40
2022/08/16 01:48:08;;;;;;;8.43;4.90;;;23.70;85.20;;;;;;5111512;27;20247;-45
2022/08/16 01:50:49;;;;;;;4.97;4.47;;;23.60;85.20;;;;;;5096524;27;20221;-40
2022/08/16 01:53:37;;;;;;;6.18;5.05;;;23.60;85.30;;;;;;5117568;27;20255;-40
2022/08/16 01:56:08;;;;;;;7.07;4.55;;;23.60;85.30;;;;;;5115544;27;20707;-40
2022/08/16 01:58:52;;;;;;;5.68;4.50;;;23.60;85.20;;;;;;5111135;27;20242;-40
2022/08/16 02:01:19;;;;;;;5.03;4.30;;;23.50;85.10;;;;;;5106146;28;20195;-40
2022/08/16 02:03:48;;;;;;;5.05;4.45;;;23.50;85.10;;;;;;5116467;27;20202;-40
2022/08/16 02:06:19;;;;;;;4.75;4.22;;;23.50;85.10;;;;;;5109613;27;20210;-40
2022/08/16 02:09:02;;;;;;;4.50;4.07;;;23.50;85.00;;;;;;5121303;27;20687;-42
2022/08/16 02:11:35;;;;;;;4.38;3.90;;;23.50;85.20;;;;;;5094319;27;20216;-41
2022/08/16 02:14:21;;;;;;;4.40;4.00;;;23.40;85.20;;;;;;5115366;27;20233;-41
2022/08/16 02:16:54;;;;;;;5.88;4.03;;;23.40;85.20;;;;;;5109289;27;20236;-41
2022/08/16 02:19:26;;;;;;;4.55;3.58;;;23.40;85.30;;;;;;5123144;27;20711;-41
2022/08/16 02:22:17;;;;;;;4.15;3.67;;;23.40;85.40;;;;;;5095817;27;20690;-41
2022/08/16 02:25:13;;;;;;;7.18;3.70;;;23.30;85.20;;;;;;5112493;27;20297;-40
2022/08/16 02:27:45;;;;;;;5.40;4.03;;;23.30;85.50;;;;;;5120118;27;20741;-42
2022/08/16 02:30:31;;;;;;;5.28;3.80;;;23.20;85.40;;;;;;5125103;27;20660;-53
2022/08/16 02:33:11;;;;;;;3.90;3.60;;;23.20;85.50;;;;;;5115258;27;20292;-49
2022/08/16 02:35:43;;;;;;;4.05;3.33;;;23.20;85.40;;;;;;5091724;28;20214;-50
2022/08/16 02:38:25;;;;;;;4.20;3.80;;;23.20;85.30;;;;;;5118840;27;20579;-48
2022/08/16 02:40:55;;;;;;;4.53;3.38;;;23.20;85.50;;;;;;5122484;27;20214;-50
2022/08/16 02:43:28;;;;;;;4.07;3.60;;;23.20;85.50;;;;;;5095382;27;20233;-50
2022/08/16 02:46:02;;;;;;;5.82;3.30;;;23.20;85.70;;;;;;5116147;27;20201;-50
2022/08/16 02:48:34;;;;;;;4.60;3.30;;;23.20;85.60;;;;;;5118362;27;20263;-51
2022/08/16 02:51:06;;;;;;;3.10;2.90;;;23.10;85.50;;;;;;5102425;27;20327;-50
2022/08/16 02:53:44;;;;;;;4.38;3.17;;;23.10;85.60;;;;;;5104207;27;20197;-50
2022/08/16 02:56:13;;;;;;;4.88;3.33;;;23.10;85.60;;;;;;5121792;27;20245;-50
2022/08/16 02:58:49;;;;;;;3.42;3.00;;;23.10;85.60;;;;;;5115313;27;20292;-51
2022/08/16 03:01:21;;;;;;;4.07;3.47;;;23.10;85.70;;;;;;5113990;27;20218;-50
2022/08/16 03:04:02;;;;;;;3.45;3.13;;;23.10;85.60;;;;;;5120642;27;20194;-51
2022/08/16 03:06:53;;;;;;;4.38;3.28;;;23.10;85.70;;;;;;5120381;27;20525;-53
2022/08/16 03:09:24;;;;;;;3.20;2.78;;;23.10;85.80;;;;;;5091719;27;20206;-50
2022/08/16 03:11:55;;;;;;;5.43;4.38;;;23.00;85.70;;;;;;5094802;27;20209;-50
2022/08/16 03:14:24;;;;;;;3.80;3.30;;;23.00;85.50;;;;;;5099468;28;20289;-50
2022/08/16 03:16:57;;;;;;;3.95;3.10;;;23.00;85.60;;;;;;5089546;28;20514;-49
2022/08/16 03:19:32;;;;;;;4.00;3.58;;;23.00;85.80;;;;;;5091863;28;20636;-51
2022/08/16 03:22:20;;;;;;;3.95;3.55;;;23.00;85.80;;;;;;5109454;27;20194;-51
2022/08/16 03:24:57;;;;;;;4.45;3.28;;;22.90;85.70;;;;;;5126782;27;20245;-53
2022/08/16 03:27:26;;;;;;;3.47;3.13;;;22.90;86.00;;;;;;5119618;27;20324;-51
2022/08/16 03:30:01;;;;;;;4.18;3.00;;;22.90;86.00;;;;;;5107726;27;20290;-47
2022/08/16 03:32:49;;;;;;;4.40;3.42;;;22.90;86.10;;;;;;5109606;27;20210;-52
2022/08/16 03:35:21;;;;;;;4.78;3.60;;;22.80;86.00;;;;;;5117823;27;20576;-49
2022/08/16 03:37:57;;;;;;;6.10;3.50;;;22.80;86.10;;;;;;5101287;27;20206;-51
2022/08/16 03:40:31;;;;;;;3.63;3.28;;;22.80;86.00;;;;;;5125353;27;20229;-51
2022/08/16 03:43:01;;;;;;;3.72;3.22;;;22.80;86.00;;;;;;5119318;27;20253;-50
2022/08/16 03:45:48;;;;;;;4.10;3.70;;;22.80;86.20;;;;;;5093146;28;20200;-52
2022/08/16 03:48:25;;;;;;;4.80;3.38;;;22.80;86.30;;;;;;5113920;27;20198;-49
2022/08/16 03:51:09;;;;;;;3.30;3.00;;;22.70;86.20;;;;;;5108737;27;20214;-54
2022/08/16 03:53:40;;;;;;;3.88;3.47;;;22.70;86.30;;;;;;5112308;27;20236;-54
2022/08/16 03:56:15;;;;;;;3.75;3.22;;;22.70;86.30;;;;;;5111035;27;20198;-49
2022/08/16 03:58:48;;;;;;;4.65;3.40;;;22.70;86.50;;;;;;5097923;28;20919;-51
2022/08/16 04:01:20;;;;;;;3.83;3.28;;;22.70;86.50;;;;;;5113316;27;20186;-50
2022/08/16 04:03:51;;;;;;;4.78;3.40;;;22.60;86.40;;;;;;5102352;27;20341;-53
2022/08/16 04:06:21;;;;;;;3.75;3.33;;;22.60;86.50;;;;;;5111742;27;20197;-50
2022/08/16 04:08:48;;;;;;;3.63;3.33;;;22.60;86.50;;;;;;5126319;27;20373;-49
2022/08/16 04:11:23;;;;;;;3.47;3.13;;;22.60;86.50;;;;;;5108277;28;20221;-51
2022/08/16 04:13:51;;;;;;;3.55;3.25;;;22.60;87.40;;;;;;5109314;27;20198;-50
2022/08/16 04:16:34;;;;;;;4.10;3.60;;;22.60;86.70;;;;;;5107493;28;20212;-50
2022/08/16 04:19:03;;;;;;;3.67;3.38;;;22.60;86.80;;;;;;5111116;27;20222;-49
2022/08/16 04:21:33;;;;;;;4.47;3.88;;;22.60;86.70;;;;;;5108189;28;20210;-52
2022/08/16 04:24:02;;;;;;;5.35;4.00;;;22.60;86.90;;;;;;5112189;27;20196;-49
2022/08/16 04:26:34;;;;;;;3.72;3.42;;;22.60;87.00;;;;;;5095467;27;20628;-51
2022/08/16 04:29:03;;;;;;;4.25;3.70;;;22.60;87.00;;;;;;5107762;28;20668;-52
2022/08/16 04:31:46;;;;;;;3.88;3.58;;;22.60;87.10;;;;;;5107125;28;20852;-48
2022/08/16 04:34:30;;;;;;;4.47;3.72;;;22.50;87.20;;;;;;5108512;27;20228;-48
2022/08/16 04:36:59;;;;;;;4.03;3.67;;;22.50;87.20;;;;;;5121957;27;20231;-52
2022/08/16 04:39:30;;;;;;;4.20;3.72;;;22.50;87.20;;;;;;5113102;27;20598;-47
2022/08/16 04:42:16;;;;;;;4.60;4.00;;;22.50;87.30;;;;;;5108069;27;20208;-53
2022/08/16 04:44:45;;;;;;;8.30;4.43;;;22.50;87.40;;;;;;5099570;28;20561;-51
2022/08/16 04:47:24;;;;;;;6.50;3.78;;;22.50;87.40;;;;;;5122992;28;20582;-51
2022/08/16 04:50:06;;;;;;;5.95;4.53;;;22.50;87.50;;;;;;5109379;28;20563;-52
2022/08/16 04:52:34;;;;;;;5.30;4.80;;;22.50;87.40;;;;;;5116048;28;20201;-50
2022/08/16 04:55:15;;;;;;;5.63;4.45;;;22.50;87.50;;;;;;5113566;28;20654;-51
2022/08/16 04:57:43;;;;;;;6.50;4.63;;;22.50;87.90;;;;;;5094555;28;20225;-49
2022/08/16 05:00:32;;;;;;;6.15;4.75;;;22.50;87.60;;;;;;5090338;28;20221;-50
2022/08/16 05:03:07;;;;;;;7.05;4.53;;;22.50;87.80;;;;;;5107720;28;20246;-51
2022/08/16 05:05:37;;;;;;;10.32;4.80;;;22.50;87.70;;;;;;5111133;28;20207;-49
2022/08/16 05:08:28;;;;;;;5.93;5.00;;;22.60;87.70;;;;;;5120308;28;20192;-53
2022/08/16 05:11:02;;;;;;;5.85;4.63;;;22.60;87.80;;;;;;5111477;28;20547;-50
2022/08/16 05:13:34;;;;;;;8.68;4.68;;;22.60;88.00;;;;;;5110814;28;20208;-52
2022/08/16 05:16:14;;;;;;;5.47;4.97;;;22.60;88.00;;;;;;5109643;28;20201;-52
2022/08/16 05:18:49;;;;;;;6.13;4.80;;;22.60;88.00;;;;;;5105779;28;20683;-51
2022/08/16 05:21:16;;;;;;;6.45;5.50;;;22.60;88.20;;;;;;5112269;28;20267;-52
2022/08/16 05:23:51;;;;;;;5.90;5.05;;;22.60;88.20;;;;;;5108191;28;20317;-52
2022/08/16 05:26:32;;;;;;;10.77;5.25;;;22.70;88.30;;;;;;5117037;28;20208;-49
2022/08/16 05:29:01;;;;;;;16.40;5.45;;;22.70;88.20;;;;;;5108955;28;20232;-48
2022/08/16 05:31:30;;;;;;;6.75;4.82;;;22.80;88.50;;;;;;5106847;28;20651;-50
2022/08/16 05:34:00;;;;;;;5.60;5.10;;;22.80;88.50;;;;;;5111114;28;20209;-51
2022/08/16 05:36:33;;;;;;;5.47;4.85;;;22.80;88.50;;;;;;5115039;28;20198;-52
2022/08/16 05:39:06;;;;;;;7.18;5.45;;;22.80;88.30;;;;;;5105333;28;20209;-51
2022/08/16 05:41:35;;;;;;;5.20;4.70;;;22.80;88.50;;;;;;5082067;28;20213;-50
2022/08/16 05:44:13;;;;;;;5.93;4.82;;;22.80;88.20;;;;;;5097554;28;20202;-51
2022/08/16 05:46:55;;;;;;;6.47;5.20;;;22.90;88.60;;;;;;5118702;28;20301;-50
2022/08/16 05:49:31;;;;;;;7.10;5.60;;;22.90;88.50;;;;;;5109908;28;20210;-49
2022/08/16 05:52:08;;;;;;;5.57;4.97;;;22.90;88.60;;;;;;5120773;27;20196;-51
2022/08/16 05:54:43;;;;;;;7.07;5.65;;;22.90;88.50;;;;;;5121593;27;20535;-41
2022/08/16 05:57:18;;;;;;;8.05;5.13;;;22.90;88.50;;;;;;5118167;27;20218;-41
2022/08/16 05:59:47;;;;;;;6.38;5.65;;;23.00;88.50;;;;;;5090783;28;20222;-41
2022/08/16 06:02:31;;;;;;;6.40;5.72;;;23.00;88.50;;;;;;5109263;28;20210;-40
2022/08/16 06:05:04;;;;;;;8.95;5.57;;;23.00;88.50;;;;;;5110431;28;20217;-41
2022/08/16 06:07:31;;;;;;;10.05;6.47;;;23.00;88.60;;;;;;5092434;28;20194;-41
2022/08/16 06:10:00;;;;;;;8.95;5.90;;;23.10;88.80;;;;;;5096500;28;20198;-41
2022/08/16 06:12:31;;;;;;;12.73;5.60;;;23.10;89.50;;;;;;5093822;28;20587;-51
2022/08/16 06:15:03;;;;;;;8.65;6.82;;;23.10;88.70;;;;;;5115050;27;20234;-51
2022/08/16 06:17:38;;;;;;;8.60;6.22;;;23.10;89.60;;;;;;5097081;28;20206;-51
2022/08/16 06:20:18;;;;;;;7.78;6.50;;;23.20;88.80;;;;;;5111283;28;20226;-50
2022/08/16 06:22:55;;;;;;;8.48;6.10;;;23.20;88.90;;;;;;5104426;27;20677;-52
2022/08/16 06:25:32;;;;;;;8.18;7.05;;;23.20;88.80;;;;;;5105211;28;20963;-53
2022/08/16 06:28:06;;;;;;;11.73;7.28;;;23.30;89.00;;;;;;5093529;28;20571;-50
2022/08/16 06:30:35;;;;;;;10.82;7.25;;;23.30;89.00;;;;;;5095421;28;20203;-49
2022/08/16 06:33:13;;;;;;;11.75;7.65;;;23.40;89.20;;;;;;5108217;28;20708;-51
2022/08/16 06:35:51;;;;;;;10.77;8.00;;;23.40;89.10;;;;;;5102145;28;20206;-50
2022/08/16 06:38:26;;;;;;;13.43;8.18;;;23.40;89.40;;;;;;5089028;28;20272;-41
2022/08/16 06:41:02;;;;;;;8.50;7.22;;;23.40;89.20;;;;;;5097335;28;20330;-40
2022/08/16 06:43:31;;;;;;;12.73;7.28;;;23.50;89.40;;;;;;5114477;27;20225;-41
2022/08/16 06:46:00;;;;;;;11.45;8.00;;;23.50;89.30;;;;;;5102458;27;20210;-40
2022/08/16 06:48:33;;;;;;;9.68;8.07;;;23.50;89.50;;;;;;5095907;27;20216;-40
2022/08/16 06:51:05;;;;;;;7.82;7.03;;;23.50;89.30;;;;;;5114563;27;20356;-40
2022/08/16 06:53:35;;;;;;;8.98;7.65;;;23.60;89.40;;;;;;5117212;27;20209;-40
2022/08/16 06:56:07;;;;;;;10.35;7.85;;;23.60;89.60;;;;;;5104889;28;20241;-40
2022/08/16 06:58:44;;;;;;;9.30;7.03;;;23.70;89.40;;;;;;5119686;27;20244;-40
2022/08/16 07:01:11;;;;;;;7.93;6.53;;;23.70;89.40;;;;;;5111921;27;20245;-40
2022/08/16 07:03:41;;;;;;;9.30;7.05;;;23.70;89.40;;;;;;5123788;27;20413;-40
2022/08/16 07:06:25;;;;;;;14.48;7.00;;;23.70;89.60;;;;;;5118855;27;20222;-41
2022/08/16 07:08:53;;;;;;;9.27;6.82;;;23.80;89.50;;;;;;5109152;27;20577;-42
2022/08/16 07:11:20;;;;;;;8.23;7.25;;;23.80;89.60;;;;;;5128027;27;20564;-42
2022/08/16 07:14:08;;;;;;;7.85;6.45;;;23.80;89.70;;;;;;5112625;27;20229;-42
2022/08/16 07:16:56;;;;;;;8.23;6.70;;;23.90;89.70;;;;;;5110928;27;20206;-42
2022/08/16 07:19:25;;;;;;;10.60;6.57;;;23.90;89.80;;;;;;5114184;27;20205;-42
2022/08/16 07:22:15;;;;;;;7.97;5.78;;;23.90;89.90;;;;;;5102490;27;20210;-42
2022/08/16 07:25:03;;;;;;;8.23;6.47;;;24.00;90.00;;;;;;5149721;27;20193;-42
2022/08/16 07:27:33;;;;;;;6.70;6.07;;;24.00;89.90;;;;;;5130203;27;20205;-42
2022/08/16 07:30:11;;;;;;;8.38;6.18;;;24.10;90.00;;;;;;5116754;27;20220;-41
2022/08/16 07:32:59;;;;;;;8.20;5.55;;;24.10;89.90;;;;;;5109342;27;20203;-41
2022/08/16 07:35:27;;;;;;;6.97;6.10;;;24.20;90.00;;;;;;5123512;27;20872;-42
2022/08/16 07:37:54;;;;;;;6.57;5.40;;;24.20;90.00;;;;;;5110581;27;20201;-42
2022/08/16 07:40:22;;;;;;;8.05;6.47;;;24.20;90.00;;;;;;5110943;27;20665;-41
2022/08/16 07:43:11;;;;;;;7.82;5.55;;;24.30;90.00;;;;;;5121257;27;20573;-42
2022/08/16 07:45:41;;;;;;;7.53;5.60;;;24.30;90.00;;;;;;5110649;27;20622;-42
2022/08/16 07:48:12;;;;;;;7.45;5.60;;;24.40;90.10;;;;;;5108811;27;20198;-42
2022/08/16 07:50:41;;;;;;;7.40;6.30;;;24.40;90.10;;;;;;5116297;27;20221;-41
2022/08/16 07:53:30;;;;;;;6.07;5.25;;;24.50;90.10;;;;;;5121700;27;20290;-42
2022/08/16 07:56:00;;;;;;;8.07;5.63;;;24.50;90.10;;;;;;5123084;27;20680;-42
2022/08/16 07:58:31;;;;;;;5.75;5.20;;;24.50;90.10;;;;;;5106506;27;20233;-42
2022/08/16 08:01:05;;;;;;;7.10;5.32;;;24.70;90.10;;;;;;5117635;27;20603;-42
2022/08/16 08:03:41;;;;;;;8.65;5.30;;;24.70;90.10;;;;;;5107494;27;20202;-41
2022/08/16 08:06:22;;;;;;;6.07;5.20;;;24.80;90.10;;;;;;5124185;27;20197;-42
2022/08/16 08:08:51;;;;;;;6.18;5.07;;;24.80;90.10;;;;;;5102437;27;20212;-43
2022/08/16 08:11:26;;;;;;;6.82;5.32;;;24.90;90.00;;;;;;5103177;27;20208;-42
2022/08/16 08:13:58;;;;;;;7.20;4.68;;;24.90;90.00;;;;;;5118709;27;20205;-42
2022/08/16 08:16:31;;;;;;;9.30;5.15;;;24.90;90.00;;;;;;5086028;28;20687;-41
2022/08/16 08:19:00;;;;;;;5.43;4.93;;;25.00;90.00;;;;;;5107839;28;20214;-42
2022/08/16 08:21:31;;;;;;;6.55;4.90;;;25.00;90.00;;;;;;5120922;27;20699;-42
2022/08/16 08:24:20;;;;;;;7.40;4.93;;;25.00;90.00;;;;;;5113003;27;20625;-42
2022/08/16 08:26:47;;;;;;;7.22;5.15;;;25.10;90.00;;;;;;5126799;27;20198;-42
2022/08/16 08:29:22;;;;;;;6.35;4.93;;;25.20;90.00;;;;;;5118360;27;20654;-42
2022/08/16 08:32:06;;;;;;;6.68;5.18;;;25.20;90.00;;;;;;5109546;27;20193;-42
2022/08/16 08:34:55;;;;;;;8.30;4.93;;;25.30;90.10;;;;;;5106752;28;20198;-42
2022/08/16 08:37:29;;;;;;;6.35;5.30;;;25.30;90.10;;;;;;5102540;27;20339;-43
2022/08/16 08:40:20;;;;;;;4.97;4.47;;;25.30;90.10;;;;;;5126727;27;20255;-42
2022/08/16 08:42:51;;;;;;;6.75;4.93;;;25.40;90.20;;;;;;5119803;27;20706;-42
2022/08/16 08:45:28;;;;;;;6.65;4.88;;;25.50;90.20;;;;;;5089983;28;20568;-42
2022/08/16 08:48:17;;;;;;;5.97;5.07;;;25.60;90.30;;;;;;5122008;27;20198;-42
2022/08/16 08:51:06;;;;;;;6.72;5.40;;;25.70;90.30;;;;;;5107355;28;20271;-42
2022/08/16 08:53:38;;;;;;;5.30;4.80;;;25.80;90.30;;;;;;5114599;27;20628;-42
2022/08/16 08:56:07;;;;;;;6.47;4.93;;;25.90;90.40;;;;;;5121300;27;20309;-42
2022/08/16 08:58:51;;;;;;;9.65;5.00;;;26.00;90.40;;;;;;5113441;28;20233;-42
2022/08/16 09:01:33;;;;;;;9.02;5.63;;;26.00;90.30;;;;;;5110419;28;20717;-42
2022/08/16 09:04:09;;;;;;;17.10;6.32;;;26.10;90.20;;;;;;5108225;28;20250;-42
2022/08/16 09:06:43;;;;;;;13.65;5.50;;;26.20;90.20;;;;;;5106998;28;20674;-42
2022/08/16 09:09:11;;;;;;;7.40;5.13;;;26.30;90.00;;;;;;5106699;28;20663;-42
2022/08/16 09:11:44;;;;;;;29.27;6.78;;;26.30;90.00;;;;;;5119063;28;20308;-41
2022/08/16 09:14:19;;;;;;;17.52;5.45;;;26.40;89.70;;;;;;5122632;27;20296;-41
2022/08/16 09:16:51;;;;;;;14.88;5.25;;;26.40;89.70;;;;;;5122942;28;20205;-41
2022/08/16 09:19:31;;;;;;;6.95;4.43;;;26.40;89.80;;;;;;5116567;28;20239;-41
2022/08/16 09:22:00;;;;;;;7.35;4.70;;;26.50;89.80;;;;;;5107860;28;20226;-42
2022/08/16 09:24:27;;;;;;;7.13;5.00;;;26.50;89.80;;;;;;5125439;27;20201;-42
2022/08/16 09:27:15;;;;;;;8.65;4.63;;;26.60;89.80;;;;;;5117661;28;20216;-43
2022/08/16 09:29:47;;;;;;;7.10;4.50;;;26.60;89.60;;;;;;5093229;28;20301;-42
2022/08/16 09:32:28;;;;;;;6.63;5.05;;;26.70;89.10;;;;;;5082471;27;20237;-42
2022/08/16 09:35:01;;;;;;;14.52;6.05;;;26.70;89.20;;;;;;5112333;27;20718;-41
2022/08/16 09:37:30;;;;;;;7.63;5.30;;;26.80;88.00;;;;;;5130295;27;20248;-42
2022/08/16 09:40:08;;;;;;;5.88;4.93;;;26.80;88.70;;;;;;5130306;27;20207;-42
2022/08/16 09:42:57;;;;;;;6.63;4.57;;;26.80;88.90;;;;;;5126597;27;20279;-42
2022/08/16 09:45:29;;;;;;;5.65;4.35;;;26.90;89.00;;;;;;5119644;27;20206;-42
2022/08/16 09:47:59;;;;;;;5.72;4.57;;;26.90;89.20;;;;;;5092436;27;20216;-42
2022/08/16 09:50:30;;;;;;;7.43;4.88;;;27.00;89.00;;;;;;5122848;27;20302;-42
2022/08/16 09:53:13;;;;;;;12.23;5.75;;;27.10;88.90;;;;;;5121970;27;20407;-42
2022/08/16 09:55:49;;;;;;;8.32;5.50;;;27.20;88.60;;;;;;5126101;27;20978;-42
2022/08/16 09:58:22;;;;;;;7.97;5.35;;;27.30;89.00;;;;;;5121587;27;20447;-42
2022/08/16 10:01:09;;;;;;;5.65;5.10;;;27.30;88.70;;;;;;5127425;27;20222;-42
2022/08/16 10:03:40;;;;;;;7.03;5.40;;;27.40;89.10;;;;;;5116189;27;20194;-42
2022/08/16 10:06:28;;;;;;;5.20;4.70;;;27.40;89.10;;;;;;5121330;27;20198;-42
2022/08/16 10:09:04;;;;;;;6.13;5.20;;;27.50;88.90;;;;;;5128611;27;20206;-42
2022/08/16 10:14:44;;;;;;;9.05;5.22;;;27.60;89.10;;;;;;5114093;27;20202;-42
2022/08/16 10:17:12;;;;;;;5.25;4.72;;;27.70;88.90;;;;;;5113643;27;20230;-43
2022/08/16 10:19:45;;;;;;;5.90;5.30;;;27.70;88.80;;;;;;5118024;27;20218;-42
2022/08/16 10:22:18;;;;;;;5.30;4.80;;;27.80;89.00;;;;;;5093764;28;20230;-42
2022/08/16 10:24:49;;;;;;;5.88;4.88;;;27.80;89.10;;;;;;5112328;27;20604;-41
2022/08/16 10:27:25;;;;;;;6.50;5.03;;;27.80;89.10;;;;;;5120346;27;20747;-42
2022/08/16 10:30:12;;;;;;;8.07;5.53;;;27.90;88.90;;;;;;5122859;27;20312;-42
2022/08/16 10:32:52;;;;;;;6.28;5.18;;;27.90;87.70;;;;;;5118554;27;20282;-42
2022/08/16 10:35:20;;;;;;;5.88;5.38;;;27.90;88.50;;;;;;5104781;28;20206;-42
2022/08/16 10:37:49;;;;;;;6.57;5.53;;;28.00;88.30;;;;;;5099569;28;20653;-42
2022/08/16 10:40:19;;;;;;;5.28;4.60;;;28.00;89.20;;;;;;5117601;27;20198;-41
2022/08/16 10:42:58;;;;;;;5.95;4.95;;;28.00;88.50;;;;;;5117516;27;20300;-42
2022/08/16 10:45:28;;;;;;;7.15;5.22;;;28.10;88.20;;;;;;5126391;27;20205;-42
2022/08/16 10:48:05;;;;;;;6.45;5.45;;;28.10;88.60;;;;;;5130963;27;20209;-41
2022/08/16 10:50:56;;;;;;;6.63;5.22;;;28.20;88.30;;;;;;5098008;28;20202;-43
2022/08/16 10:53:29;;;;;;;5.30;4.80;;;28.20;88.80;;;;;;5102324;28;20864;-41
2022/08/16 10:56:11;;;;;;;5.28;4.72;;;28.30;88.90;;;;;;5124456;27;20205;-41
2022/08/16 10:58:58;;;;;;;5.65;4.55;;;28.30;89.10;;;;;;5111061;27;20229;-41
2022/08/16 11:01:46;;;;;;;8.90;4.75;;;28.40;89.10;;;;;;5113176;27;20209;-42
2022/08/16 11:04:33;;;;;;;5.47;4.97;;;28.50;89.20;;;;;;5125348;27;20259;-42
2022/08/16 11:07:22;;;;;;;5.68;5.05;;;28.60;89.20;;;;;;5096797;28;20194;-41
2022/08/16 11:10:11;;;;;;;7.28;4.93;;;28.70;89.50;;;;;;5110014;27;20209;-41
2022/08/16 11:12:47;;;;;;;6.95;4.50;;;28.80;87.40;;;;;;5120749;27;20228;-41
2022/08/16 11:15:19;;;;;;;5.43;4.93;;;28.90;88.30;;;;;;5104452;27;20201;-41
2022/08/16 11:17:49;;;;;;;6.07;4.38;;;28.90;88.50;;;;;;5113125;27;20238;-41
2022/08/16 11:20:37;;;;;;;4.88;4.38;;;29.00;88.70;;;;;;5115769;27;20214;-54
2022/08/16 11:23:08;;;;;;;6.82;4.60;;;29.00;88.90;;;;;;5121729;27;20213;-50
2022/08/16 11:25:41;;;;;;;8.30;4.95;;;29.00;89.10;;;;;;5099714;28;20198;-52
2022/08/16 11:28:29;;;;;;;6.70;4.82;;;29.10;88.90;;;;;;5118721;27;20571;-54
2022/08/16 11:31:18;;;;;;;5.15;4.65;;;29.20;88.60;;;;;;5109768;27;20790;-49
2022/08/16 11:33:49;;;;;;;5.45;4.95;;;29.30;89.10;;;;;;5124183;27;22092;-52
2022/08/16 11:36:19;;;;;;;7.07;4.57;;;29.30;89.00;;;;;;5109429;27;20217;-51
2022/08/16 11:38:55;;;;;;;6.65;4.95;;;29.40;88.80;;;;;;5093337;28;20296;-50
2022/08/16 11:41:25;;;;;;;4.85;4.43;;;29.40;88.80;;;;;;5117425;27;20226;-51
2022/08/16 11:43:56;;;;;;;5.35;4.70;;;29.60;89.10;;;;;;5107894;27;20672;-51
2022/08/16 11:46:24;;;;;;;5.88;4.55;;;29.60;89.00;;;;;;5117987;27;20556;-51
2022/08/16 11:49:12;;;;;;;6.35;4.82;;;29.70;89.00;;;;;;5117251;27;20198;-50
2022/08/16 11:51:44;;;;;;;4.75;4.28;;;29.80;87.90;;;;;;5111028;27;20205;-51
2022/08/16 11:54:12;;;;;;;6.85;4.40;;;29.80;88.50;;;;;;5120619;27;20206;-50
2022/08/16 11:56:49;;;;;;;7.35;4.45;;;29.90;87.60;;;;;;5113378;27;20720;-52
2022/08/16 11:59:28;;;;;;;6.63;4.00;;;29.90;87.30;;;;;;5094480;27;20703;-51
2022/08/16 12:02:01;;;;;;;6.78;4.30;;;29.90;87.40;;;;;;5116648;27;20595;-41
2022/08/16 12:04:48;;;;;;;7.85;4.38;;;29.90;86.60;;;;;;5113675;27;20336;-40
2022/08/16 12:07:21;;;;;;;4.43;4.00;;;29.80;86.80;;;;;;5107415;28;20661;-40
2022/08/16 12:09:51;;;;;;;4.57;3.88;;;29.90;87.00;;;;;;5119945;27;20216;-42
2022/08/16 12:12:20;;;;;;;5.07;3.88;;;29.90;86.70;;;;;;5109881;27;20602;-42
2022/08/16 12:14:50;;;;;;;4.53;4.10;;;30.00;87.30;;;;;;5096114;27;20679;-41
2022/08/16 12:17:29;;;;;;;4.75;4.25;;;30.00;87.50;;;;;;5116513;27;20289;-40
2022/08/16 12:20:03;;;;;;;4.53;3.95;;;30.00;86.50;;;;;;5116391;27;20212;-41
2022/08/16 12:22:37;;;;;;;6.65;4.15;;;30.10;86.60;;;;;;5116476;27;20226;-41
2022/08/16 12:25:09;;;;;;;6.28;4.03;;;30.10;86.50;;;;;;5125701;27;20258;-41
2022/08/16 12:27:39;;;;;;;4.85;3.88;;;30.10;86.70;;;;;;5122867;27;20202;-40
2022/08/16 12:30:10;;;;;;;6.53;4.32;;;30.10;86.40;;;;;;5090772;28;20289;-40
2022/08/16 12:32:58;;;;;;;5.07;3.75;;;30.10;87.00;;;;;;5122985;27;20213;-44
2022/08/16 12:35:31;;;;;;;4.18;3.78;;;30.20;87.00;;;;;;5128154;27;20269;-42
2022/08/16 12:38:02;;;;;;;7.15;4.20;;;30.20;87.20;;;;;;5093973;28;20259;-42
2022/08/16 12:40:54;;;;;;;5.10;4.22;;;30.30;87.10;;;;;;5108451;28;20325;-42
2022/08/16 12:43:24;;;;;;;13.93;4.25;;;30.30;86.90;;;;;;5112446;27;20278;-42
2022/08/16 12:45:54;;;;;;;4.90;4.50;;;30.40;87.00;;;;;;5101665;28;20755;-42
2022/08/16 12:51:16;;;;;;;4.57;4.15;;;30.50;87.50;;;;;;5112319;28;20237;-42
2022/08/16 12:53:54;;;;;;;4.20;3.90;;;30.50;87.30;;;;;;5108656;28;20205;-42
2022/08/16 12:56:26;;;;;;;4.30;4.00;;;30.60;87.40;;;;;;5123606;28;20617;-42
2022/08/16 12:58:55;;;;;;;5.50;4.18;;;30.70;87.20;;;;;;5113258;28;20236;-42
2022/08/16 13:01:26;;;;;;;5.18;4.22;;;30.70;87.00;;;;;;5120947;27;20233;-40
2022/08/16 13:03:55;;;;;;;4.55;4.15;;;30.80;87.10;;;;;;5108588;28;20285;-41
2022/08/16 13:06:43;;;;;;;5.97;4.30;;;30.80;87.40;;;;;;5125125;27;20201;-52
2022/08/16 13:09:30;;;;;;;5.47;4.80;;;30.90;87.20;;;;;;5118088;27;20197;-49
2022/08/16 13:12:18;;;;;;;4.55;4.18;;;30.90;86.50;;;;;;5111699;27;20699;-51
2022/08/16 13:14:47;;;;;;;5.78;4.38;;;30.90;86.70;;;;;;5121539;27;20304;-50
2022/08/16 13:17:20;;;;;;;7.63;5.00;;;30.90;85.90;;;;;;5097215;28;20296;-50
2022/08/16 13:19:51;;;;;;;6.78;4.35;;;30.90;86.50;;;;;;5122681;27;20197;-50
2022/08/16 13:22:54;;;;;;;4.28;3.97;;;30.90;86.20;;;;;;5110105;27;20220;-51
2022/08/16 13:25:24;;;;;;;4.68;4.20;;;30.90;85.40;;;;;;5112425;27;20263;-51
2022/08/16 13:27:55;;;;;;;4.43;4.00;;;30.90;86.10;;;;;;5122675;27;20628;-51
2022/08/16 13:30:48;;;;;;;7.50;5.00;;;31.00;86.30;;;;;;5124112;27;20293;-41
2022/08/16 13:33:18;;;;;;;7.47;4.30;;;31.00;87.00;;;;;;5126649;27;20201;-40
2022/08/16 13:35:57;;;;;;;5.97;4.30;;;31.10;86.60;;;;;;5117102;27;20206;-41
2022/08/16 13:38:25;;;;;;;4.22;3.83;;;31.10;86.60;;;;;;5118866;27;20216;-40